Time;durP1;ratioP1;P1;durP2;ratioP2;P2;SDS_P1;SDS_P2;PMS_P1;PMS_P2;Temp;Humidity;BMP_temperature;BMP_pressure;BME280_temperature;BME280_humidity;BME280_pressure;Samples;Min_cycle;Max_cycle;Signal;HPM_P1;HPM_P2
2021/11/16 00:02:03;;;;;;;31.73;19.03;;;;;;;5.61;100.00;152802.72;5094196;28;20432;-73
2021/11/16 00:04:38;;;;;;;34.63;18.90;;;;;;;5.60;100.00;152800.09;5076215;28;21221;-74
2021/11/16 00:07:14;;;;;;;27.53;17.40;;;;;;;5.60;100.00;152800.09;5078183;28;20539;-74
2021/11/16 00:09:50;;;;;;;28.03;17.03;;;;;;;5.77;100.00;152842.69;5093076;28;20934;-74
2021/11/16 00:12:26;;;;;;;27.93;16.60;;;;;;;5.77;100.00;152842.69;5102641;28;20475;-74
2021/11/16 00:15:04;;;;;;;25.73;15.07;;;;;;;5.69;100.00;152822.03;5109703;28;20432;-74
2021/11/16 00:17:40;;;;;;;23.13;15.90;;;;;;;5.67;100.00;152818.16;5107459;28;20455;-74
2021/11/16 00:20:16;;;;;;;29.50;16.97;;;;;;;5.63;100.00;152806.56;5106399;28;20428;-74
2021/11/16 00:22:53;;;;;;;24.07;15.80;;;;;;;5.59;100.00;152797.50;5108898;28;20447;-74
2021/11/16 00:28:42;;;;;;;26.20;17.60;;;;;;;5.61;100.00;152802.72;5024105;28;20466;-79
2021/11/16 00:31:19;;;;;;;32.03;20.00;;;;;;;5.61;100.00;152802.72;5013670;28;20973;-80
2021/11/16 00:33:55;;;;;;;30.50;18.20;;;;;;;5.61;100.00;152802.72;5014796;28;20431;-80
2021/11/16 00:36:33;;;;;;;34.63;18.73;;;;;;;5.64;100.00;152809.16;4994232;28;20463;-80
2021/11/16 00:39:08;;;;;;;29.93;17.93;;;;;;;5.63;100.00;152806.56;5003610;28;20452;-80
2021/11/16 00:41:44;;;;;;;27.83;17.70;;;;;;;5.64;100.00;152810.41;4998383;28;20436;-80
2021/11/16 00:44:20;;;;;;;31.27;18.17;;;;;;;5.66;100.00;152815.59;5031936;28;20903;-80
2021/11/16 00:46:57;;;;;;;25.10;17.63;;;;;;;5.68;100.00;152820.75;5031992;28;20412;-80
2021/11/16 00:49:33;;;;;;;25.33;17.00;;;;;;;5.68;100.00;152819.44;5028263;28;21004;-80
2021/11/16 00:52:09;;;;;;;24.90;16.20;;;;;;;5.67;100.00;152816.84;5027553;28;20814;-80
2021/11/16 00:54:44;;;;;;;28.20;17.23;;;;;;;5.67;100.00;152818.16;5042776;28;20960;-80
2021/11/16 00:57:22;;;;;;;24.13;16.00;;;;;;;5.69;100.00;152823.34;5030706;28;20996;-80
2021/11/16 00:59:58;;;;;;;28.17;17.37;;;;;;;5.70;100.00;152825.88;5007102;28;20447;-80
2021/11/16 01:02:35;;;;;;;22.87;16.00;;;;;;;5.69;100.00;152823.34;5015073;28;20452;-80
2021/11/16 01:05:12;;;;;;;27.83;16.70;;;;;;;5.69;100.00;152823.34;5013612;28;20540;-80
2021/11/16 01:07:48;;;;;;;27.97;17.33;;;;;;;5.72;100.00;152831.03;5031613;28;20435;-80
2021/11/16 01:10:23;;;;;;;25.30;17.70;;;;;;;5.74;100.00;152836.22;5022365;28;20451;-79
2021/11/16 01:13:00;;;;;;;25.27;17.00;;;;;;;5.73;100.00;152832.34;5037563;28;20443;-80
2021/11/16 01:15:38;;;;;;;22.30;16.27;;;;;;;5.69;100.00;152823.34;5024157;28;20949;-80
2021/11/16 01:18:16;;;;;;;25.20;17.43;;;;;;;5.73;100.00;152833.63;5030067;28;20440;-80
2021/11/16 01:20:52;;;;;;;24.83;16.07;;;;;;;5.74;100.00;152836.22;5015474;28;20437;-80
2021/11/16 01:23:28;;;;;;;23.60;16.50;;;;;;;5.71;100.00;152828.47;5005565;28;20444;-80
2021/11/16 01:26:05;;;;;;;26.63;16.03;;;;;;;5.72;100.00;152831.03;4998011;28;20468;-80
2021/11/16 01:28:41;;;;;;;26.00;15.67;;;;;;;5.73;100.00;152833.63;5028985;28;20467;-79
2021/11/16 01:31:17;;;;;;;27.13;15.60;;;;;;;5.71;100.00;152828.47;5029430;28;20447;-80
2021/11/16 01:33:56;;;;;;;22.90;15.23;;;;;;;5.69;100.00;152823.34;5034983;28;20447;-80
2021/11/16 01:36:31;;;;;;;23.17;15.33;;;;;;;5.69;100.00;152823.34;5017042;28;20467;-80
2021/11/16 01:39:07;;;;;;;25.70;16.40;;;;;;;5.70;100.00;152824.59;5017309;28;20447;-80
2021/11/16 01:41:46;;;;;;;24.73;16.00;;;;;;;5.68;100.00;152820.75;5013157;28;20440;-80
2021/11/16 01:44:23;;;;;;;25.00;15.50;;;;;;;5.67;100.00;152818.16;5015740;28;20802;-79
2021/11/16 01:46:58;;;;;;;23.47;14.20;;;;;;;5.69;100.00;152823.34;5033498;28;20949;-80
2021/11/16 01:49:35;;;;;;;18.97;13.37;;;;;;;5.67;100.00;152818.16;5050160;28;20475;-79
2021/11/16 01:52:11;;;;;;;24.30;15.93;;;;;;;5.73;100.00;152832.34;5039539;28;20436;-80
2021/11/16 01:54:46;;;;;;;22.23;14.93;;;;;;;5.70;100.00;152825.88;5031538;28;20460;-80
2021/11/16 01:57:23;;;;;;;22.47;15.50;;;;;;;5.67;100.00;152816.84;5030200;28;20464;-80
2021/11/16 01:59:59;;;;;;;24.60;15.60;;;;;;;5.68;100.00;152820.75;5018693;28;20460;-79
2021/11/16 02:02:36;;;;;;;21.27;14.97;;;;;;;5.68;100.00;152819.44;5034362;28;20439;-80
2021/11/16 02:05:13;;;;;;;21.77;15.00;;;;;;;5.69;100.00;152823.34;5017012;28;20782;-80
2021/11/16 02:07:49;;;;;;;23.73;13.97;;;;;;;5.64;100.00;152809.16;5033172;28;20448;-80
2021/11/16 02:10:24;;;;;;;24.73;15.50;;;;;;;5.67;100.00;152818.16;5033383;28;20447;-80
2021/11/16 02:13:01;;;;;;;24.10;15.63;;;;;;;5.62;100.00;152805.25;5033411;28;20452;-80
2021/11/16 02:15:38;;;;;;;20.43;13.97;;;;;;;5.64;100.00;152809.16;5034838;28;20456;-80
2021/11/16 02:18:14;;;;;;;27.93;16.43;;;;;;;5.66;100.00;152815.59;5034252;28;20459;-80
2021/11/16 02:20:53;;;;;;;24.20;16.53;;;;;;;5.65;100.00;152813.00;5007799;28;20456;-80
2021/11/16 02:23:29;;;;;;;24.27;15.90;;;;;;;5.65;100.00;152811.69;5032072;28;20447;-80
2021/11/16 02:26:04;;;;;;;24.40;15.63;;;;;;;5.65;100.00;152811.69;5013513;28;20432;-80
2021/11/16 02:28:43;;;;;;;22.37;16.70;;;;;;;5.63;100.00;152807.84;5013747;28;20535;-78
2021/11/16 02:31:20;;;;;;;27.07;16.73;;;;;;;5.63;100.00;152807.84;5025964;28;20462;-80
2021/11/16 02:33:56;;;;;;;23.93;16.07;;;;;;;5.69;100.00;152823.34;5000042;28;20942;-80
2021/11/16 02:36:34;;;;;;;23.17;15.33;;;;;;;5.66;100.00;152814.28;5029889;28;20452;-80
2021/11/16 02:39:12;;;;;;;25.93;16.00;;;;;;;5.65;100.00;152813.00;5028088;28;20447;-80
2021/11/16 02:41:51;;;;;;;23.20;14.23;;;;;;;5.66;100.00;152814.28;5015127;28;20456;-80
2021/11/16 02:44:27;;;;;;;22.83;14.90;;;;;;;5.65;100.00;152813.00;4998387;28;20793;-80
2021/11/16 02:47:03;;;;;;;20.70;14.27;;;;;;;5.64;100.00;152810.41;5017569;28;20483;-81
2021/11/16 02:49:41;;;;;;;18.23;13.87;;;;;;;5.61;100.00;152802.72;5031228;28;20501;-80
2021/11/16 02:52:20;;;;;;;21.73;14.57;;;;;;;5.63;100.00;152807.84;5028995;28;20478;-80
2021/11/16 02:54:56;;;;;;;25.90;15.50;;;;;;;5.62;100.00;152803.97;5033039;28;20447;-80
2021/11/16 02:57:32;;;;;;;24.03;15.80;;;;;;;5.64;100.00;152810.41;5027586;28;20456;-80
2021/11/16 03:00:11;;;;;;;26.30;15.83;;;;;;;5.61;100.00;152802.72;5003059;28;20455;-80
2021/11/16 03:02:48;;;;;;;21.23;15.30;;;;;;;5.61;100.00;152802.72;5032416;28;20443;-80
2021/11/16 03:05:31;;;;;;;22.20;15.57;;;;;;;5.60;100.00;152798.81;5022789;28;20543;-80
2021/11/16 03:08:16;;;;;;;26.70;16.53;;;;;;;5.60;100.00;152798.81;5027463;28;20443;-80
2021/11/16 03:10:55;;;;;;;22.60;16.00;;;;;;;5.59;100.00;152796.25;5033817;28;20475;-80
2021/11/16 03:13:36;;;;;;;23.80;15.90;;;;;;;5.58;100.00;152794.97;5015552;28;20554;-81
2021/11/16 03:16:15;;;;;;;21.53;14.63;;;;;;;5.57;100.00;152792.38;5013529;28;20443;-80
2021/11/16 03:18:52;;;;;;;22.67;16.43;;;;;;;5.59;100.00;152796.25;5028467;28;20432;-80
2021/11/16 03:21:28;;;;;;;25.23;16.47;;;;;;;5.59;100.00;152796.25;5030288;28;20447;-80
2021/11/16 03:24:05;;;;;;;22.17;13.90;;;;;;;5.57;100.00;152792.38;5029885;28;20460;-79
2021/11/16 03:26:41;;;;;;;22.10;15.03;;;;;;;5.57;100.00;152792.38;5031471;28;20451;-80
2021/11/16 03:29:19;;;;;;;23.13;14.60;;;;;;;5.57;100.00;152791.06;5032243;28;20479;-80
2021/11/16 03:32:04;;;;;;;23.60;14.40;;;;;;;5.54;100.00;152784.63;5015203;28;20479;-80
2021/11/16 03:34:42;;;;;;;28.03;16.47;;;;;;;5.56;100.00;152788.50;5032782;28;20538;-80
2021/11/16 03:37:19;;;;;;;25.97;15.57;;;;;;;5.55;100.00;152787.22;5032108;28;20548;-80
2021/11/16 03:39:56;;;;;;;22.97;15.20;;;;;;;5.59;100.00;152797.50;5011623;28;20445;-80
2021/11/16 03:42:32;;;;;;;24.43;15.03;;;;;;;5.60;100.00;152798.81;5011828;28;20441;-80
2021/11/16 03:45:08;;;;;;;25.17;16.10;;;;;;;5.59;100.00;152796.25;5013460;28;20452;-80
2021/11/16 03:47:46;;;;;;;27.33;16.90;;;;;;;5.59;100.00;152797.50;5021863;28;20795;-80
2021/11/16 03:50:24;;;;;;;24.93;16.07;;;;;;;5.58;100.00;152793.66;5035811;28;20799;-80
2021/11/16 03:53:00;;;;;;;26.27;16.53;;;;;;;5.57;100.00;152792.38;5028601;28;20456;-80
2021/11/16 03:55:42;;;;;;;29.27;17.77;;;;;;;5.53;100.00;152783.31;5014232;28;21169;-80
2021/11/16 03:58:20;;;;;;;21.93;15.47;;;;;;;5.54;100.00;152784.63;5021593;28;20477;-79
2021/11/16 04:01:00;;;;;;;23.03;15.63;;;;;;;5.52;100.00;152779.47;5026325;28;20484;-80
2021/11/16 04:03:40;;;;;;;28.27;17.13;;;;;;;5.52;100.00;152779.47;5003834;28;20460;-80
2021/11/16 04:06:16;;;;;;;27.50;16.40;;;;;;;5.52;100.00;152779.47;5013474;28;20783;-80
2021/11/16 04:08:53;;;;;;;26.17;15.47;;;;;;;5.52;100.00;152779.47;5020247;28;20440;-79
2021/11/16 04:11:32;;;;;;;21.70;14.40;;;;;;;5.51;100.00;152776.88;5027585;28;20464;-79
2021/11/16 04:14:07;;;;;;;26.20;16.03;;;;;;;5.48;100.00;152770.44;5021662;28;20455;-79
2021/11/16 04:16:43;;;;;;;21.30;15.10;;;;;;;5.48;100.00;152770.44;5014673;28;20867;-79
2021/11/16 04:19:19;;;;;;;23.73;14.73;;;;;;;5.45;100.00;152762.69;5047138;28;20454;-79
2021/11/16 04:21:54;;;;;;;25.27;14.73;;;;;;;5.45;100.00;152762.69;5029983;28;20459;-80
2021/11/16 04:24:30;;;;;;;21.43;14.87;;;;;;;5.46;100.00;152765.28;5032474;28;20482;-79
2021/11/16 04:27:08;;;;;;;25.30;15.00;;;;;;;5.51;100.00;152776.88;5014558;28;20432;-79
2021/11/16 04:29:44;;;;;;;25.43;15.20;;;;;;;5.48;100.00;152769.19;5004705;28;20472;-80
2021/11/16 04:32:20;;;;;;;25.80;16.27;;;;;;;5.47;100.00;152766.59;5014004;28;20444;-79
2021/11/16 04:34:58;;;;;;;21.90;15.47;;;;;;;5.46;100.00;152764.00;5010068;28;20543;-79
2021/11/16 04:37:34;;;;;;;24.20;16.50;;;;;;;5.45;100.00;152762.69;5035908;28;20566;-79
2021/11/16 04:40:12;;;;;;;26.00;16.70;;;;;;;5.43;100.00;152757.53;4987983;28;20455;-79
2021/11/16 04:42:49;;;;;;;21.23;15.30;;;;;;;5.46;100.00;152764.00;5007379;28;20806;-79
2021/11/16 04:45:25;;;;;;;28.87;15.70;;;;;;;5.44;100.00;152760.13;5012299;28;20445;-79
2021/11/16 04:48:09;;;;;;;23.57;14.77;;;;;;;5.43;100.00;152756.25;5016077;28;20501;-79
2021/11/16 04:51:02;;;;;;;22.03;13.80;;;;;;;5.41;100.00;152751.09;5017283;28;20439;-79
2021/11/16 04:54:07;;;;;;;22.87;14.80;;;;;;;5.40;100.00;152748.56;5017242;28;20431;-79
2021/11/16 04:59:53;;;;;;;26.57;16.00;;;;;;;5.39;100.00;152745.94;5012986;28;20448;-79
2021/11/16 05:02:35;;;;;;;25.30;15.20;;;;;;;5.35;100.00;152735.63;5013506;28;20527;-79
2021/11/16 05:05:13;;;;;;;23.20;13.17;;;;;;;5.34;100.00;152733.06;5014931;28;20444;-79
2021/11/16 05:07:55;;;;;;;22.67;14.73;;;;;;;5.36;100.00;152738.22;5029757;28;20936;-79
2021/11/16 05:10:32;;;;;;;22.50;14.67;;;;;;;5.37;100.00;152740.81;5014026;28;20472;-79
2021/11/16 05:13:07;;;;;;;25.00;15.50;;;;;;;5.35;100.00;152736.91;5035053;28;20458;-79
2021/11/16 05:15:46;;;;;;;29.20;16.37;;;;;;;5.35;100.00;152735.63;5017386;28;20483;-79
2021/11/16 05:18:23;;;;;;;24.27;16.63;;;;;;;5.32;100.00;152727.91;5016633;28;20471;-80
2021/11/16 05:20:59;;;;;;;21.27;14.17;;;;;;;5.34;100.00;152733.06;5002040;28;20949;-79
2021/11/16 05:23:40;;;;;;;23.50;15.10;;;;;;;5.34;100.00;152734.38;5017266;28;20443;-79
2021/11/16 05:26:15;;;;;;;22.43;15.70;;;;;;;5.34;100.00;152733.06;5050824;28;20526;-79
2021/11/16 05:28:51;;;;;;;21.07;14.37;;;;;;;5.33;100.00;152730.47;5033593;28;20444;-79
2021/11/16 05:31:28;;;;;;;23.03;14.87;;;;;;;5.33;100.00;152731.78;5032183;28;20454;-79
2021/11/16 05:34:04;;;;;;;32.67;14.70;;;;;;;5.34;100.00;152733.06;5050756;28;20439;-80
2021/11/16 05:36:39;;;;;;;24.40;15.70;;;;;;;5.35;100.00;152735.63;5035666;28;20443;-79
2021/11/16 05:39:16;;;;;;;22.27;14.20;;;;;;;5.34;100.00;152733.06;5050850;28;20463;-79
2021/11/16 05:41:57;;;;;;;24.43;15.63;;;;;;;5.29;100.00;152721.47;5034366;28;20451;-79
2021/11/16 05:44:33;;;;;;;24.20;15.67;;;;;;;5.31;100.00;152725.31;5035004;28;20423;-79
2021/11/16 05:47:10;;;;;;;23.07;14.80;;;;;;;5.27;100.00;152715.03;5029961;28;20933;-80
2021/11/16 05:49:47;;;;;;;21.13;14.47;;;;;;;5.27;100.00;152716.28;5048850;28;20451;-79
2021/11/16 05:52:23;;;;;;;21.23;14.40;;;;;;;5.26;100.00;152713.75;5004051;28;20497;-79
2021/11/16 05:55:01;;;;;;;24.10;15.50;;;;;;;5.21;100.00;152700.84;5033432;28;20817;-79
2021/11/16 05:57:37;;;;;;;24.33;15.00;;;;;;;5.21;100.00;152700.84;5035578;28;20475;-80
2021/11/16 06:03:02;;;;;;;21.83;15.00;;;;;;;5.23;100.00;152704.69;5019031;26;20477;-74
2021/11/16 06:05:43;;;;;;;21.77;12.47;;;;;;;5.23;100.00;152706.00;5054084;28;20469;-74
2021/11/16 06:08:23;;;;;;;27.93;16.10;;;;;;;5.23;100.00;152704.69;5054299;28;20808;-74
2021/11/16 06:11:00;;;;;;;22.83;14.10;;;;;;;5.25;100.00;152711.13;5042616;28;20430;-74
2021/11/16 06:13:36;;;;;;;24.80;14.90;;;;;;;5.24;100.00;152707.28;5086448;28;20952;-74
2021/11/16 06:16:12;;;;;;;20.27;13.43;;;;;;;5.21;100.00;152700.84;5040193;28;20447;-74
2021/11/16 06:18:51;;;;;;;19.03;13.40;;;;;;;5.23;100.00;152704.69;5045776;28;20475;-74
2021/11/16 06:21:29;;;;;;;22.40;13.07;;;;;;;5.20;100.00;152696.94;5031476;28;20443;-73
2021/11/16 06:24:06;;;;;;;19.37;13.20;;;;;;;5.18;100.00;152691.81;5034252;28;20408;-73
2021/11/16 06:26:42;;;;;;;19.40;12.63;;;;;;;5.16;100.00;152686.66;5079346;28;20451;-74
2021/11/16 06:29:17;;;;;;;21.60;12.90;;;;;;;5.18;100.00;152691.81;5054144;28;20484;-73
2021/11/16 06:31:53;;;;;;;21.60;14.00;;;;;;;5.17;100.00;152689.22;5054533;28;20776;-73
2021/11/16 06:34:30;;;;;;;21.67;12.77;;;;;;;5.19;100.00;152694.41;5037095;28;20533;-74
2021/11/16 06:37:06;;;;;;;18.53;13.27;;;;;;;5.18;100.00;152691.81;5085160;28;20454;-74
2021/11/16 06:39:41;;;;;;;21.13;13.60;;;;;;;5.15;100.00;152685.38;5039048;28;20930;-73
2021/11/16 06:42:17;;;;;;;19.83;13.37;;;;;;;5.15;100.00;152684.06;5053226;28;20905;-74
2021/11/16 06:44:52;;;;;;;21.17;12.57;;;;;;;5.13;100.00;152678.94;5052747;28;20859;-74
2021/11/16 06:47:28;;;;;;;22.60;12.60;;;;;;;5.15;100.00;152684.06;5052327;28;20445;-74
2021/11/16 06:50:06;;;;;;;19.50;11.90;;;;;;;5.15;100.00;152684.06;5048451;28;20538;-74
2021/11/16 06:52:48;;;;;;;15.53;11.10;;;;;;;5.11;100.00;152675.03;5033161;28;20435;-74
2021/11/16 06:55:24;;;;;;;19.27;12.73;;;;;;;5.12;100.00;152676.31;5035404;28;20442;-74
2021/11/16 06:57:59;;;;;;;16.30;10.53;;;;;;;5.11;100.00;152675.03;5056397;28;20494;-74
2021/11/16 07:00:35;;;;;;;15.70;11.00;;;;;;;5.14;100.00;152681.47;5066359;28;20810;-74
2021/11/16 07:03:10;;;;;;;17.83;11.10;;;;;;;5.11;100.00;152675.03;5065074;28;20475;-73
2021/11/16 07:05:53;;;;;;;17.53;11.63;;;;;;;5.13;100.00;152678.94;5036322;28;21015;-73
2021/11/16 07:08:34;;;;;;;19.20;12.43;;;;;;;5.11;100.00;152675.03;5049968;28;20446;-73
2021/11/16 07:11:12;;;;;;;18.93;11.83;;;;;;;5.14;100.00;152681.47;5047086;28;20479;-75
2021/11/16 07:13:58;;;;;;;18.10;10.57;;;;;;;5.13;100.00;152678.94;5041703;28;20458;-74
2021/11/16 07:16:36;;;;;;;15.97;10.63;;;;;;;5.14;100.00;152682.78;5034519;28;20465;-74
2021/11/16 07:19:13;;;;;;;18.00;11.27;;;;;;;5.12;100.00;152676.31;5050263;28;20462;-74
2021/11/16 07:21:52;;;;;;;16.03;10.60;;;;;;;5.14;100.00;152681.47;5051713;28;20454;-74
2021/11/16 07:24:29;;;;;;;17.70;11.70;;;;;;;5.12;100.00;152676.31;5052719;28;20451;-74
2021/11/16 07:27:08;;;;;;;16.70;11.83;;;;;;;5.14;100.00;152681.47;5047227;28;20542;-75
2021/11/16 07:29:45;;;;;;;19.30;12.37;;;;;;;5.12;100.00;152676.31;5036464;28;20449;-75
2021/11/16 07:32:24;;;;;;;17.43;11.20;;;;;;;5.15;100.00;152684.06;5065182;28;20591;-74
2021/11/16 07:35:03;;;;;;;18.20;11.90;;;;;;;5.21;100.00;152699.56;5068081;28;20427;-74
2021/11/16 07:37:41;;;;;;;16.67;10.43;;;;;;;5.15;100.00;152685.38;5052466;28;20447;-74
2021/11/16 07:40:19;;;;;;;17.10;12.03;;;;;;;5.17;100.00;152689.22;5050984;28;20546;-74
2021/11/16 07:42:57;;;;;;;19.07;11.40;;;;;;;5.18;100.00;152691.81;5051074;28;20952;-74
2021/11/16 07:45:37;;;;;;;17.40;11.20;;;;;;;5.18;100.00;152693.09;5034976;28;20533;-74
2021/11/16 07:48:14;;;;;;;15.93;10.70;;;;;;;5.22;100.00;152702.09;5052291;28;20467;-74
2021/11/16 07:50:51;;;;;;;17.30;11.40;;;;;;;5.21;100.00;152699.56;5083387;28;20431;-74
2021/11/16 07:53:32;;;;;;;17.85;10.98;;;;;;;5.22;100.00;152702.09;5083234;28;20450;-76
2021/11/16 07:56:09;;;;;;;16.10;10.37;;;;;;;5.21;100.00;152700.84;5040383;28;20649;-75
2021/11/16 07:58:51;;;;;;;15.10;10.90;;;;;;;5.18;100.00;152691.81;5050989;28;20567;-75
2021/11/16 08:01:36;;;;;;;18.90;11.33;;;;;;;5.23;100.00;152706.00;5077070;28;20456;-75
2021/11/16 08:04:19;;;;;;;17.43;12.07;;;;;;;5.24;100.00;152707.28;5047243;28;20551;-75
2021/11/16 08:07:08;;;;;;;16.80;9.70;;;;;;;5.26;100.00;152712.44;5070925;28;20451;-75
2021/11/16 08:09:49;;;;;;;15.60;10.07;;;;;;;5.23;100.00;152704.69;5052708;28;20427;-74
2021/11/16 08:12:30;;;;;;;17.57;10.80;;;;;;;5.26;100.00;152713.75;5049720;28;20863;-75
2021/11/16 08:15:10;;;;;;;15.57;10.40;;;;;;;5.29;100.00;152720.19;5076946;28;20946;-75
2021/11/16 08:17:47;;;;;;;18.50;11.70;;;;;;;5.32;100.00;152727.91;5048809;28;20495;-75
2021/11/16 08:20:22;;;;;;;17.87;11.70;;;;;;;5.31;100.00;152725.31;5083388;28;20434;-74
2021/11/16 08:23:05;;;;;;;20.43;12.63;;;;;;;5.32;100.00;152727.91;5063788;28;20447;-74
2021/11/16 08:25:41;;;;;;;16.87;12.13;;;;;;;5.32;100.00;152727.91;5046912;28;20796;-74
2021/11/16 08:28:18;;;;;;;18.00;12.07;;;;;;;5.33;100.00;152731.78;5051910;28;20971;-74
2021/11/16 08:30:55;;;;;;;17.80;12.60;;;;;;;5.30;100.00;152722.72;5067494;28;20427;-75
2021/11/16 08:33:32;;;;;;;17.57;11.50;;;;;;;5.35;100.00;152735.63;5052025;28;20477;-75
2021/11/16 08:36:07;;;;;;;16.30;10.70;;;;;;;5.35;100.00;152735.63;5049228;28;21004;-74
2021/11/16 08:38:44;;;;;;;15.90;10.80;;;;;;;5.33;100.00;152731.78;5049224;28;20471;-74
2021/11/16 08:41:32;;;;;;;20.00;12.33;;;;;;;5.36;100.00;152738.22;5049804;28;20458;-75
2021/11/16 08:46:53;;;;;;;16.37;11.17;;;;;;;5.34;100.00;152734.38;5127212;27;20504;-74
2021/11/16 08:49:35;;;;;;;18.33;11.97;;;;;;;5.33;100.00;152730.47;5113714;28;20427;-74
2021/11/16 08:52:16;;;;;;;19.80;11.10;;;;;;;5.34;100.00;152733.06;5130949;28;20439;-74
2021/11/16 08:54:57;;;;;;;19.80;11.20;;;;;;;5.32;100.00;152727.91;5115225;28;20431;-74
2021/11/16 08:57:36;;;;;;;17.93;10.93;;;;;;;5.33;100.00;152730.47;5132478;28;20446;-74
2021/11/16 09:00:19;;;;;;;18.73;10.93;;;;;;;5.36;100.00;152738.22;5107198;28;20515;-73
2021/11/16 09:03:03;;;;;;;17.57;12.00;;;;;;;5.36;100.00;152739.50;5114398;28;20455;-75
2021/11/16 09:05:41;;;;;;;22.40;13.10;;;;;;;5.32;100.00;152727.91;5114084;28;20439;-75
2021/11/16 09:08:21;;;;;;;17.83;12.10;;;;;;;5.31;100.00;152726.63;5112188;28;20468;-74
2021/11/16 09:10:58;;;;;;;21.03;11.57;;;;;;;5.34;100.00;152733.06;5119277;28;20455;-74
2021/11/16 09:13:37;;;;;;;16.10;10.10;;;;;;;5.35;100.00;152735.63;5124459;28;20504;-74
2021/11/16 09:16:14;;;;;;;18.73;11.73;;;;;;;5.36;100.00;152738.22;5124126;28;20465;-75
2021/11/16 09:18:52;;;;;;;19.70;13.10;;;;;;;5.33;100.00;152730.47;5096826;28;20526;-74
2021/11/16 09:21:37;;;;;;;18.10;11.33;;;;;;;5.35;100.00;152735.63;5112472;28;20440;-74
2021/11/16 09:24:16;;;;;;;18.43;10.90;;;;;;;5.37;100.00;152740.81;5097680;28;20446;-74
2021/11/16 09:26:59;;;;;;;19.07;12.27;;;;;;;5.37;100.00;152740.81;5129320;28;20541;-74
2021/11/16 09:29:39;;;;;;;16.07;10.67;;;;;;;5.39;100.00;152745.94;5128508;28;20807;-75
2021/11/16 09:32:16;;;;;;;19.93;11.93;;;;;;;5.38;100.00;152744.66;5129895;28;20450;-75
2021/11/16 09:34:54;;;;;;;17.53;11.17;;;;;;;5.37;100.00;152740.81;5108253;28;20929;-74
2021/11/16 09:37:32;;;;;;;15.80;10.23;;;;;;;5.40;100.00;152749.81;5110995;27;20447;-74
2021/11/16 09:40:09;;;;;;;18.50;11.07;;;;;;;5.41;100.00;152751.09;5115864;27;20471;-74
2021/11/16 09:42:46;;;;;;;18.70;10.00;;;;;;;5.33;100.00;152730.47;5109676;27;20491;-74
2021/11/16 09:45:25;;;;;;;19.20;10.43;;;;;;;5.36;100.00;152738.22;5123126;27;20471;-74
2021/11/16 09:48:02;;;;;;;14.63;9.97;;;;;;;5.40;100.00;152748.56;5111456;28;20435;-74
2021/11/16 09:53:21;;;;;;;18.23;9.30;;;;;;;5.44;100.00;152758.84;5128380;27;20556;-75
2021/11/16 09:55:57;;;;;;;14.50;8.60;;;;;;;5.42;100.00;152755.00;5113062;27;20451;-74
2021/11/16 09:58:37;;;;;;;14.60;8.80;;;;;;;5.44;100.00;152758.84;5125459;27;20781;-75
2021/11/16 10:01:23;;;;;;;10.70;7.00;;;;;;;5.46;100.00;152764.00;5110728;27;20447;-74
2021/11/16 10:04:23;;;;;;;14.50;8.10;;;;;;;5.47;100.00;152766.59;5112762;28;20464;-74
2021/11/16 10:06:59;;;;;;;12.70;8.40;;;;;;;5.43;100.00;152757.53;5117921;27;20467;-74
2021/11/16 10:09:34;;;;;;;13.30;8.73;;;;;;;5.44;100.00;152758.84;5098072;27;20446;-75
2021/11/16 10:15:24;;;;;;;13.63;8.67;;;;;;;5.44;100.00;152758.84;5004054;28;20914;-80
2021/11/16 10:18:01;;;;;;;12.83;9.30;;;;;;;5.46;100.00;152764.00;5014333;28;20440;-80
2021/11/16 10:20:40;;;;;;;12.40;8.53;;;;;;;5.47;100.00;152766.59;4996783;28;20464;-80
2021/11/16 10:23:17;;;;;;;14.93;9.23;;;;;;;5.50;100.00;152774.31;5010708;28;20440;-80
2021/11/16 10:25:54;;;;;;;12.17;8.30;;;;;;;5.51;100.00;152776.88;5013475;28;20469;-80
2021/11/16 10:28:32;;;;;;;12.13;7.43;;;;;;;5.56;100.00;152789.75;4979397;28;20458;-80
2021/11/16 10:31:08;;;;;;;12.13;7.90;;;;;;;5.54;100.00;152784.63;4985892;28;20468;-80
2021/11/16 10:33:49;;;;;;;11.80;7.80;;;;;;;5.52;100.00;152779.47;5015964;28;20626;-80
2021/11/16 10:36:27;;;;;;;12.47;7.10;;;;;;;5.48;100.00;152769.19;4996214;28;20515;-81
2021/11/16 10:39:05;;;;;;;9.83;7.60;;;;;;;5.49;100.00;152771.72;5008748;28;20861;-80
2021/11/16 10:41:42;;;;;;;11.10;7.33;;;;;;;5.55;100.00;152787.22;4991066;28;20490;-80
2021/11/16 10:44:21;;;;;;;11.60;8.30;;;;;;;5.54;100.00;152785.91;4998205;28;20480;-80
2021/11/16 10:47:02;;;;;;;11.80;7.53;;;;;;;5.53;100.00;152782.06;5013736;28;20547;-80
2021/11/16 10:49:39;;;;;;;12.93;8.47;;;;;;;5.57;100.00;152792.38;5012080;28;20448;-80
2021/11/16 10:52:26;;;;;;;10.13;7.53;;;;;;;5.56;100.00;152789.75;5007288;28;20457;-80
2021/11/16 10:55:05;;;;;;;11.00;6.37;;;;;;;5.56;100.00;152789.75;5010031;28;20534;-80
2021/11/16 10:58:05;;;;;;;12.17;7.60;;;;;;;5.54;100.00;152784.63;4995228;28;20452;-80
2021/11/16 11:00:46;;;;;;;9.90;6.87;;;;;;;5.55;100.00;152787.22;4991830;28;20473;-80
2021/11/16 11:03:25;;;;;;;11.00;7.50;;;;;;;5.58;100.00;152794.97;5012193;28;20449;-80
2021/11/16 11:06:07;;;;;;;13.70;8.87;;;;;;;5.60;100.00;152800.09;4994630;28;20452;-80
2021/11/16 11:08:46;;;;;;;11.90;7.70;;;;;;;5.55;100.00;152787.22;5013790;28;20843;-80
2021/11/16 11:11:26;;;;;;;19.93;7.20;;;;;;;5.52;100.00;152779.47;5013405;28;20547;-80
2021/11/16 11:14:05;;;;;;;12.10;7.53;;;;;;;5.50;100.00;152775.63;4971320;28;20461;-80
2021/11/16 11:16:44;;;;;;;15.30;7.73;;;;;;;5.52;100.00;152780.78;5011769;28;20484;-80
2021/11/16 11:19:24;;;;;;;11.23;6.97;;;;;;;5.51;100.00;152778.19;4994869;28;20484;-80
2021/11/16 11:22:10;;;;;;;12.50;8.13;;;;;;;5.49;100.00;152773.03;5012686;28;20482;-80
2021/11/16 11:24:50;;;;;;;12.63;8.33;;;;;;;5.53;100.00;152782.06;4993392;28;20472;-80
2021/11/16 11:27:31;;;;;;;13.13;8.27;;;;;;;5.56;100.00;152788.50;4994947;28;20456;-80
2021/11/16 11:30:13;;;;;;;11.60;8.27;;;;;;;5.56;100.00;152788.50;5011536;28;20453;-80
2021/11/16 11:32:50;;;;;;;14.60;9.30;;;;;;;5.57;100.00;152791.06;5011939;28;20444;-80
2021/11/16 11:35:28;;;;;;;10.83;6.43;;;;;;;5.59;100.00;152797.50;4999720;28;20853;-80
2021/11/16 11:38:13;;;;;;;11.03;6.20;;;;;;;5.53;100.00;152782.06;5009998;28;20481;-80
2021/11/16 11:40:56;;;;;;;12.93;6.93;;;;;;;5.58;100.00;152794.97;5007470;28;20575;-80
2021/11/16 11:43:32;;;;;;;13.37;7.53;;;;;;;5.60;100.00;152800.09;5002373;28;20455;-80
2021/11/16 11:46:08;;;;;;;11.40;7.40;;;;;;;5.61;100.00;152802.72;5010822;28;20840;-80
2021/11/16 11:48:46;;;;;;;11.93;7.97;;;;;;;5.59;100.00;152797.50;4986439;28;20916;-80
2021/11/16 11:51:21;;;;;;;11.13;7.93;;;;;;;5.62;100.00;152803.97;4989189;28;20456;-80
2021/11/16 11:53:58;;;;;;;10.33;7.80;;;;;;;5.62;100.00;152805.25;4979223;28;20465;-80
2021/11/16 11:56:37;;;;;;;11.07;7.17;;;;;;;5.63;100.00;152807.84;4990683;28;20458;-80
2021/11/16 11:59:13;;;;;;;11.73;7.00;;;;;;;5.64;100.00;152810.41;5022886;28;20563;-80
2021/11/16 12:01:50;;;;;;;10.77;7.30;;;;;;;5.66;100.00;152815.59;5027645;28;20468;-79
2021/11/16 12:04:27;;;;;;;10.43;6.50;;;;;;;5.64;100.00;152809.16;5026878;28;20444;-80
2021/11/16 12:07:05;;;;;;;10.27;7.43;;;;;;;5.60;100.00;152800.09;5010887;28;20819;-80
2021/11/16 12:09:43;;;;;;;7.70;6.23;;;;;;;5.63;100.00;152807.84;4992395;28;20765;-80
2021/11/16 12:12:22;;;;;;;8.03;6.03;;;;;;;5.63;100.00;152807.84;5006076;28;20472;-80
2021/11/16 12:15:02;;;;;;;10.00;6.40;;;;;;;5.66;100.00;152815.59;5008560;28;20465;-80
2021/11/16 12:17:48;;;;;;;10.10;7.20;;;;;;;5.61;100.00;152802.72;4994508;28;20448;-80
2021/11/16 12:20:41;;;;;;;9.67;6.57;;;;;;;5.65;100.00;152813.00;4991589;28;20488;-80